Terminal Aerodrome Forecast
Issued by NWS Detroit/Pontiac, MI

Home | Current Version | Previous Version | Text Only | Print | Product List | Glossary On
Versions: 1 2 3 4 5 6 7 8 9 10 11 12 13 14 15 16 17 18 19 20 21 22 23 24 25 26 27 28 29 30
864
FTUS43 KDTX 110629 AAB
TAFDTW
TAF AMD
KDTW 110629Z 1106/1212 21005KT 5SM -SHSN BKN060 OVC080
     FM110700 20005KT 3SM -SN OVC040
     FM110900 18007KT 1 1/2SM -SN OVC015
     FM111600 16010KT 3/4SM -SN OVC010
     FM111800 16013KT 1/2SM SN OVC006
     FM120100 18011KT 3/4SM -SN OVC006
     FM120400 19010KT 3SM -SN OVC009
     FM120800 22010KT P6SM OVC009=

USA.gov is the U.S. government's official web portal to all federal, state and local government web resources and services.